Latest Coastal Weather Observations for Onslow Airport

IDW60701

Issued at 5:21 am WST Tuesday 3 May 2016 (issued every 10 minutes, with the page automatically refreshed every 10 minutes)

About coastal observations | Map of coastal stations | Coastal observations for WA | Marine services | Other Formats
Station Details ID: 005017 Name: ONSLOW AIRPORT Lat: -21.67 Lon: 115.11 Height: 10.5 m
Data from the previous 72 hours. | See also: Recent months at Onslow Airport
Date/Time
WST
Temp

°C
Wind Pressure Rain
since 9am
mm
Weather Cloud Vis
km
Sea
Height
m
Swell
Dir
 
Speed
knots
Gust
knots
hPa Trend Height
m
Period
s
Dir
03/05:00am 22.5 ESE 4 5 1012.4 - 0.0 - - - - - - -
03/04:30am 22.6 E 3 4 1012.2 - 0.0 - - - - - - -
03/04:00am 22.7 E 4 4 1012.1 - 0.0 - - - - - - -
03/03:30am 23.2 CALM 0 0 1012.3 - 0.0 - - - - - - -
03/03:00am 23.1 S 3 4 1012.5 - 0.0 - - - - - - -
03/02:30am 22.5 SSW 4 5 1012.7 - 0.0 - - - - - - -
03/02:00am 22.7 SW 4 4 1012.7 - 0.0 - - - - - - -
03/01:30am 23.2 WSW 4 5 1012.9 - 0.0 - - - - - - -
03/01:00am 23.3 W 4 5 1012.9 - 0.0 - - - - - - -
03/12:30am 23.6 WNW 4 6 1013.1 - 0.0 - - - - - - -
03/12:00am 23.6 WNW 6 7 1013.2 - 0.0 - - - - - - -
 
Date/Time
WST
Temp

°C
Wind Pressure Rain
since 9am
mm
Weather Cloud Vis
km
Sea
Height
m
Swell
Dir
 
Speed
knots
Gust
knots
hPa Trend Height
m
Period
s
Dir
02/11:30pm 23.5 WNW 5 6 1013.1 - 0.0 - - - - - - -
02/11:00pm 23.5 NW 5 6 1013.1 - 0.0 - - - - - - -
02/10:30pm 23.2 W 4 6 1013.1 - 0.0 - - - - - - -
02/10:00pm 23.6 W 7 7 1013.3 - 0.0 - - - - - - -
02/09:30pm 23.7 W 5 6 1013.5 - 0.0 - - - - - - -
02/09:00pm 24.2 SW 5 6 1013.6 - 0.0 - - - - - - -
02/08:30pm 24.3 WSW 6 7 1013.5 - 0.0 - - - - - - -
02/08:00pm 24.5 W 5 6 1013.3 - 0.0 - - - - - - -
02/07:30pm 24.9 W 6 7 1013.3 - 0.0 - - - - - - -
02/07:00pm 25.3 W 7 8 1013.1 - 0.0 - - - - - - -
02/06:30pm 25.6 W 7 8 1012.8 - 0.0 - - - - - - -
02/06:00pm 26.0 W 7 8 1012.5 - 0.0 - - - - - - -
02/05:30pm 27.3 NW 10 12 1012.2 - 0.0 - - - - - - -
02/05:00pm 27.9 NW 10 13 1012.0 - 0.0 - - - - - - -
02/04:30pm 28.6 NW 10 13 1011.9 - 0.0 - - - - - - -
02/04:00pm 29.3 NNW 9 12 1012.0 - 0.0 - - - - - - -
02/03:30pm 29.1 N 11 14 1011.8 - 0.0 - - - - - - -
02/03:00pm 29.5 NNW 10 14 1011.9 - 0.0 - - - - - - -
02/02:30pm 29.4 NNW 11 15 1011.8 - 0.0 - - - - - - -
02/02:00pm 29.4 NNW 12 16 1012.0 - 0.0 - - - - - - -
02/01:30pm 29.9 N 11 15 1012.3 - 0.0 - - - - - - -
02/01:00pm 29.3 N 11 16 1012.8 - 0.0 - - - - - - -
02/12:30pm 29.4 NNW 11 14 1013.2 - 0.0 - - - - - - -
02/12:00pm 30.1 N 9 12 1013.6 - 0.0 - - - - - - -
02/11:30am 29.3 N 9 13 1013.9 - 0.0 - - - - - - -
02/11:00am 28.5 NNE 10 13 1014.1 - 0.0 - - - - - - -
02/10:30am 29.2 NNE 10 14 1014.3 - 0.0 - - - - - - -
02/10:00am 28.8 NE 9 11 1014.5 - 0.0 - - - - - - -
02/09:30am 28.1 NE 9 12 1014.5 - 0.0 - - - - - - -
02/09:00am 26.0 SSW 3 6 1014.7 - 0.0 - - - - - - -
02/08:30am 24.5 SE 4 5 1014.3 - 0.0 - - - - - - -
02/08:00am 23.2 SE 3 4 1014.0 - 0.0 - - - - - - -
02/07:30am 22.2 SE 1 3 1013.7 - 0.0 - - - - - - -
02/07:00am 20.8 SSW 6 6 1013.4 - 0.0 - - - - - - -
02/06:30am 20.1 SSW 5 5 1012.9 - 0.0 - - - - - - -
02/06:00am 20.2 S 6 7 1012.8 - 0.0 - - - - - - -
02/05:30am 20.4 ESE 3 4 1012.4 - 0.0 - - - - - - -
02/05:00am 20.5 S 4 5 1012.2 - 0.0 - - - - - - -
02/04:30am 20.3 SSW 1 3 1012.2 - 0.0 - - - - - - -
02/04:00am 20.9 SSW 5 6 1012.2 - 0.0 - - - - - - -
02/03:30am 21.1 CALM 0 0 1012.2 - 0.0 - - - - - - -
02/03:00am 22.0 CALM 0 0 1012.2 - 0.0 - - - - - - -
02/02:30am 21.7 SE 3 6 1012.7 - 0.0 - - - - - - -
02/02:00am 21.8 NE 4 6 1012.6 - 0.0 - - - - - - -
02/01:30am 21.8 NNE 5 6 1012.7 - 0.0 - - - - - - -
02/01:00am 21.7 CALM 0 0 1012.9 - 0.0 - - - - - - -
02/12:30am 21.6 CALM 0 0 1013.0 - 0.0 - - - - - - -
02/12:00am 21.3 CALM 0 0 1012.8 - 0.0 - - - - - - -
 
Date/Time
WST
Temp

°C
Wind Pressure Rain
since 9am
mm
Weather Cloud Vis
km
Sea
Height
m
Swell
Dir
 
Speed
knots
Gust
knots
hPa Trend Height
m
Period
s
Dir
01/11:30pm 22.4 W 1 3 1013.0 - 0.0 - - - - - - -
01/11:00pm 22.1 WSW 5 6 1013.2 - 0.0 - - - - - - -
01/10:30pm 22.0 W 5 5 1013.3 - 0.0 - - - - - - -
01/10:00pm 22.4 NW 5 5 1013.1 - 0.0 - - - - - - -
01/09:30pm 22.8 W 4 5 1013.3 - 0.0 - - - - - - -
01/09:00pm 23.0 WNW 6 6 1013.0 - 0.0 - - - - - - -
01/08:30pm 23.2 NW 5 6 1012.8 - 0.0 - - - - - - -
01/08:00pm 23.6 WNW 5 6 1012.8 - 0.0 - - - - - - -
01/07:30pm 23.8 W 4 5 1012.7 - 0.0 - - - - - - -
01/07:00pm 24.4 WSW 6 7 1012.5 - 0.0 - - - - - - -
01/06:30pm 24.9 WSW 7 8 1012.3 - 0.0 - - - - - - -
01/06:00pm 25.4 W 9 11 1012.1 - 0.0 - - - - - - -
01/05:30pm 26.3 W 9 12 1011.9 - 0.0 - - - - - - -
01/05:00pm 27.0 WNW 9 12 1011.8 - 0.0 - - - - - - -
01/04:30pm 27.7 NW 9 11 1011.7 - 0.0 - - - - - - -
01/04:00pm 28.2 NW 8 11 1011.5 - 0.0 - - - - - - -
01/03:30pm 28.7 NW 9 13 1011.4 - 0.0 - - - - - - -
01/03:00pm 29.4 NNW 10 14 1011.5 - 0.0 - - - - - - -
01/02:30pm 29.7 NNW 11 16 1011.7 - 0.0 - - - - - - -
01/02:00pm 29.6 N 12 17 1011.7 - 0.0 - - - - - - -
01/01:30pm 29.7 N 13 18 1011.7 - 0.0 - - - - - - -
01/01:00pm 29.4 N 13 18 1012.2 - 0.0 - - - - - - -
01/12:30pm 29.4 N 11 16 1012.9 - 0.0 - - - - - - -
01/12:00pm 29.6 NNE 10 13 1013.3 - 0.0 - - - - - - -
01/11:30am 30.0 NNE 9 12 1013.7 - 0.0 - - - - - - -
01/11:00am 29.1 NE 9 13 1013.9 - 0.0 - - - - - - -
01/10:30am 29.1 NE 10 13 1014.2 - 0.0 - - - - - - -
01/10:00am 28.5 NE 11 13 1014.3 - 0.0 - - - - - - -
01/09:30am 28.1 ENE 7 10 1014.4 - 0.0 - - - - - - -
01/09:00am 26.7 SE 7 9 1014.2 - 0.0 - - - - - - -
01/08:30am 25.2 SE 8 10 1013.9 - 0.0 - - - - - - -
01/08:00am 23.7 SE 8 11 1013.8 - 0.0 - - - - - - -
01/07:30am 21.6 SSE 7 9 1013.6 - 0.0 - - - - - - -
01/07:00am 20.3 SSE 8 10 1013.5 - 0.0 - - - - - - -
01/06:30am 19.7 SSE 8 9 1013.3 - 0.0 - - - - - - -
01/06:00am 19.2 SSE 7 8 1013.1 - 0.0 - - - - - - -
01/05:30am 19.9 SSE 8 10 1012.9 - 0.0 - - - - - - -
01/05:00am 19.7 S 7 9 1012.8 - 0.0 - - - - - - -
01/04:30am 20.0 S 8 10 1012.7 - 0.0 - - - - - - -
01/04:00am 20.3 S 9 11 1012.3 - 0.0 - - - - - - -
01/03:30am 20.4 S 8 9 1012.2 - 0.0 - - - - - - -
01/03:00am 20.8 SSW 8 10 1012.2 - 0.0 - - - - - - -
01/02:30am 20.6 SSW 8 10 1012.3 - 0.0 - - - - - - -
01/02:00am 21.2 S 6 7 1012.5 - 0.0 - - - - - - -
01/01:30am 21.3 S 8 8 1012.5 - 0.0 - - - - - - -
01/01:00am 21.4 SSE 7 8 1012.5 - 0.0 - - - - - - -
01/12:30am 21.5 S 8 11 1012.4 - 0.0 - - - - - - -
01/12:00am 21.5 SSE 7 9 1012.4 - 0.0 - - - - - - -
 
Date/Time
WST
Temp

°C
Wind Pressure Rain
since 9am
mm
Weather Cloud Vis
km
Sea
Height
m
Swell
Dir
 
Speed
knots
Gust
knots
hPa Trend Height
m
Period
s
Dir
30/11:30pm 21.4 SSE 5 7 1012.5 - 0.0 - - - - - - -
30/11:00pm 22.1 SSE 8 8 1012.7 - 0.0 - - - - - - -
30/10:30pm 22.4 SE 4 5 1012.8 - 0.0 - - - - - - -
30/10:00pm 22.5 SSE 2 3 1012.7 - 0.0 - - - - - - -
30/09:30pm 22.2 S 4 6 1012.8 - 0.0 - - - - - - -
30/09:00pm 22.9 NW 1 6 1012.7 - 0.0 - - - - - - -
30/08:30pm 23.9 N 2 6 1012.4 - 0.0 - - - - - - -
30/08:00pm 24.4 ENE 7 9 1012.1 - 0.0 - - - - - - -
30/07:30pm 23.9 NW 5 7 1012.0 - 0.0 - - - - - - -
30/07:00pm 24.4 NNE 5 6 1011.4 - 0.0 - - - - - - -
30/06:30pm 24.9 NNE 6 7 1011.3 - 0.0 - - - - - - -
30/06:00pm 25.7 NW 7 8 1011.0 - 0.0 - - - - - - -
30/05:30pm 27.1 WNW 9 11 1010.7 - 0.0 - - - - - - -
30/05:00pm 28.5 WNW 11 13 1010.5 - 0.0 - - - - - - -
30/04:30pm 29.7 WNW 12 15 1010.5 - 0.0 - - - - - - -
30/04:00pm 29.9 WNW 13 16 1010.4 - 0.0 - - - - - - -
30/03:30pm 29.1 WNW 12 15 1010.2 - 0.0 - - - - - - -
30/03:00pm 30.4 WNW 14 17 1010.5 - 0.0 - - - - - - -
30/02:30pm 32.0 NNW 12 14 1010.4 - 0.0 - - - - - - -
30/02:00pm 31.3 NW 11 13 1010.6 - 0.0 - - - - - - -
30/01:30pm 32.6 NNW 12 14 1011.0 - 0.0 - - - - - - -
30/01:00pm 32.6 SSE 3 5 1011.5 - 0.0 - - - - - - -
30/12:30pm 32.7 SSE 7 9 1011.9 - 0.0 - - - - - - -
30/12:00pm 32.7 SE 8 11 1012.4 - 0.0 - - - - - - -
30/11:30am 32.3 SE 9 11 1013.1 - 0.0 - - - - - - -
30/11:00am 31.5 SE 11 14 1013.3 - 0.0 - - - - - - -
30/10:30am 29.5 SE 13 16 1013.6 - 0.0 - - - - - - -
30/10:00am 28.5 SSE 16 19 1013.8 - 0.0 - - - - - - -
30/09:30am 26.8 SSE 16 19 1013.9 - 0.0 - - - - - - -
30/09:00am 24.7 SSE 15 19 1014.0 - 0.0 - - - - - - -
30/08:30am 22.6 S 15 19 1014.1 - 0.0 - - - - - - -
30/08:00am 21.4 S 13 17 1013.8 - 0.0 - - - - - - -
30/07:30am 20.4 S 11 14 1013.6 - 0.0 - - - - - - -
30/07:00am 18.3 SSW 11 13 1013.3 - 0.0 - - - - - - -
30/06:30am 18.0 SSW 12 15 1013.2 - 0.0 - - - - - - -
30/06:00am 18.3 SSW 13 16 1013.1 - 0.0 - - - - - - -
30/05:30am 18.2 SSW 11 15 1013.2 - 0.0 - - - - - - -

Other Formats:

Comma delimited format used in spreadsheet applications
http://www.bom.gov.au/fwo/IDW60701/IDW60701.95305.axf

JavaScript Object Notation format (JSON) in row-major order
http://www.bom.gov.au/fwo/IDW60701/IDW60701.95305.json